createdAt,value
2018-12-09T00:00:04.755Z,10.30
2018-12-09T00:02:33.891Z,10.30
2018-12-09T00:05:03.232Z,10.30
2018-12-09T00:07:32.307Z,10.30
2018-12-09T00:10:01.366Z,10.30
2018-12-09T00:12:30.718Z,10.30
2018-12-09T00:15:00.313Z,10.20
2018-12-09T00:17:29.717Z,10.20
2018-12-09T00:19:58.801Z,10.20
2018-12-09T00:22:28.025Z,10.20
2018-12-09T00:24:57.144Z,10.10
2018-12-09T00:27:26.449Z,10.10
2018-12-09T00:29:55.814Z,10.00
2018-12-09T00:32:24.860Z,10.00
2018-12-09T00:34:53.917Z,9.90
2018-12-09T00:37:22.969Z,9.80
2018-12-09T00:39:52.221Z,9.80
2018-12-09T00:42:22.091Z,9.80
2018-12-09T00:44:51.283Z,9.80
2018-12-09T00:47:20.329Z,9.70
2018-12-09T00:49:49.447Z,9.70
2018-12-09T00:52:18.545Z,9.60
2018-12-09T00:54:47.606Z,9.60
2018-12-09T00:57:16.706Z,9.70
2018-12-09T00:59:45.999Z,9.70
2018-12-09T01:02:15.106Z,9.70
2018-12-09T01:04:44.165Z,9.70
2018-12-09T01:07:13.477Z,9.70
2018-12-09T01:09:42.711Z,9.70
2018-12-09T01:12:11.794Z,9.70
2018-12-09T01:14:40.947Z,9.60
2018-12-09T01:17:10.016Z,9.60
2018-12-09T01:19:39.122Z,9.60
2018-12-09T01:22:08.236Z,9.70
2018-12-09T01:24:37.323Z,9.70
2018-12-09T01:27:06.455Z,9.70
2018-12-09T01:29:35.621Z,9.80
2018-12-09T01:32:05.027Z,9.90
2018-12-09T01:34:34.082Z,10.00
2018-12-09T01:37:03.188Z,10.10
2018-12-09T01:39:32.259Z,10.10
2018-12-09T01:42:01.450Z,10.10
2018-12-09T01:44:31.227Z,10.10
2018-12-09T01:47:00.833Z,10.10
2018-12-09T01:49:30.016Z,10.10
2018-12-09T01:51:59.077Z,10.10
2018-12-09T01:54:28.186Z,10.10
2018-12-09T01:56:57.221Z,10.10
2018-12-09T01:59:26.279Z,10.10
2018-12-09T02:01:55.586Z,10.10
2018-12-09T02:04:25.195Z,10.20
2018-12-09T02:06:54.559Z,10.20
2018-12-09T02:09:23.609Z,10.20
2018-12-09T02:11:52.987Z,10.10
2018-12-09T02:14:22.739Z,10.00
2018-12-09T02:16:51.811Z,9.90
2018-12-09T02:19:22.476Z,9.80
2018-12-09T02:21:51.991Z,9.80
2018-12-09T02:24:21.839Z,9.70
2018-12-09T02:26:51.087Z,9.60
2018-12-09T02:29:20.236Z,9.60
2018-12-09T02:31:49.293Z,9.60
2018-12-09T02:34:18.483Z,9.60
2018-12-09T02:36:47.912Z,9.60
2018-12-09T02:39:17.261Z,9.60
2018-12-09T02:41:46.783Z,9.60
2018-12-09T02:44:15.820Z,9.70
2018-12-09T02:46:44.905Z,9.70
2018-12-09T02:49:14.179Z,9.70
2018-12-09T02:51:43.492Z,9.80
2018-12-09T02:54:12.818Z,9.80
2018-12-09T02:56:41.928Z,9.80
2018-12-09T02:59:12.628Z,9.80
2018-12-09T03:01:41.872Z,9.80
2018-12-09T03:04:11.067Z,9.80
2018-12-09T03:06:40.853Z,9.80
2018-12-09T03:09:11.054Z,9.90
2018-12-09T03:11:40.109Z,9.90
2018-12-09T03:14:09.453Z,9.90
2018-12-09T03:16:38.497Z,9.90
2018-12-09T03:19:07.723Z,9.90
2018-12-09T03:21:36.896Z,9.80
2018-12-09T03:24:05.962Z,9.80
2018-12-09T03:26:35.052Z,9.70
2018-12-09T03:29:04.146Z,9.70
2018-12-09T03:31:33.217Z,9.70
2018-12-09T03:34:02.326Z,9.90
2018-12-09T03:36:31.406Z,10.00
2018-12-09T03:39:00.759Z,10.00
2018-12-09T03:41:29.968Z,10.00
2018-12-09T03:43:59.043Z,10.00
2018-12-09T03:46:28.188Z,10.00
2018-12-09T03:48:57.332Z,10.00
2018-12-09T03:51:26.614Z,10.00
2018-12-09T03:53:55.655Z,10.00
2018-12-09T03:56:24.762Z,9.90
2018-12-09T03:58:54.339Z,9.90
2018-12-09T04:01:23.888Z,9.90
2018-12-09T04:03:52.965Z,9.90
2018-12-09T04:06:22.057Z,9.90
2018-12-09T04:08:51.278Z,9.90
2018-12-09T04:11:20.318Z,9.90
2018-12-09T04:13:50.938Z,9.90
2018-12-09T04:16:27.276Z,9.90
2018-12-09T04:18:56.718Z,9.90
2018-12-09T04:21:25.740Z,9.90
2018-12-09T04:23:54.907Z,9.90
2018-12-09T04:26:23.960Z,9.90
2018-12-09T04:28:53.035Z,9.90
2018-12-09T04:31:22.103Z,9.90
2018-12-09T04:33:51.509Z,9.90
2018-12-09T04:36:20.693Z,9.80
2018-12-09T04:38:49.754Z,9.80
2018-12-09T04:41:18.908Z,9.70
2018-12-09T04:43:48.073Z,9.70
2018-12-09T04:46:17.140Z,9.70
2018-12-09T04:48:46.262Z,9.80
2018-12-09T04:51:15.398Z,9.80
2018-12-09T04:53:44.477Z,9.80
2018-12-09T04:56:13.572Z,9.90
2018-12-09T04:58:52.579Z,9.90
2018-12-09T05:01:21.726Z,9.90
2018-12-09T05:03:50.844Z,9.90
2018-12-09T05:06:19.909Z,9.90
2018-12-09T05:08:49.066Z,9.90
2018-12-09T05:11:18.193Z,9.80
2018-12-09T05:13:47.266Z,9.70
2018-12-09T05:16:16.818Z,9.80
2018-12-09T05:18:46.033Z,9.80
2018-12-09T05:21:15.228Z,9.80
2018-12-09T05:23:44.283Z,9.80
2018-12-09T05:26:13.355Z,9.80
2018-12-09T05:28:42.668Z,9.80
2018-12-09T05:31:11.884Z,9.80
2018-12-09T05:33:41.734Z,9.80
2018-12-09T05:36:17.446Z,9.70
2018-12-09T05:38:46.549Z,9.80
2018-12-09T05:41:15.740Z,9.70
2018-12-09T05:43:44.781Z,9.70
2018-12-09T05:46:14.432Z,9.70
2018-12-09T05:48:43.581Z,9.80
2018-12-09T05:51:12.668Z,9.80
2018-12-09T05:53:41.768Z,9.80
2018-12-09T05:56:10.834Z,9.80
2018-12-09T05:58:39.906Z,9.80
2018-12-09T06:01:09.394Z,9.80
2018-12-09T06:03:38.662Z,9.80
2018-12-09T06:06:08.192Z,9.80
2018-12-09T06:08:37.380Z,9.80
2018-12-09T06:11:06.447Z,9.80
2018-12-09T06:13:35.486Z,9.80
2018-12-09T06:16:04.964Z,9.80
2018-12-09T06:18:34.209Z,9.80
2018-12-09T06:21:03.274Z,9.80
2018-12-09T06:23:32.822Z,9.80
2018-12-09T06:26:01.954Z,9.80
2018-12-09T06:28:31.064Z,9.80
2018-12-09T06:31:00.102Z,9.80
2018-12-09T06:33:29.270Z,9.80
2018-12-09T06:35:58.371Z,9.80
2018-12-09T06:38:27.461Z,9.80
2018-12-09T06:40:56.496Z,9.80
2018-12-09T06:43:25.673Z,9.80
2018-12-09T06:45:54.738Z,9.80
2018-12-09T06:48:24.150Z,9.80
2018-12-09T06:50:53.202Z,9.80
2018-12-09T06:53:22.348Z,9.80
2018-12-09T06:55:51.522Z,9.90
2018-12-09T06:58:21.129Z,9.90
2018-12-09T07:00:50.556Z,9.80
2018-12-09T07:03:20.305Z,9.90
2018-12-09T07:05:49.440Z,9.90
2018-12-09T07:08:18.488Z,9.90
2018-12-09T07:10:47.659Z,9.90
2018-12-09T07:13:17.444Z,9.90
2018-12-09T07:15:46.693Z,9.80
2018-12-09T07:18:15.986Z,9.70
2018-12-09T07:20:45.129Z,9.60
2018-12-09T07:23:14.283Z,9.50
2018-12-09T07:25:43.358Z,9.30
2018-12-09T07:28:12.404Z,9.20
2018-12-09T07:30:41.516Z,9.00
2018-12-09T07:33:10.987Z,8.90
2018-12-09T07:35:40.216Z,8.80
2018-12-09T07:38:09.327Z,8.70
2018-12-09T07:40:38.480Z,8.60
2018-12-09T07:43:07.575Z,8.60
2018-12-09T07:45:37.078Z,8.60
2018-12-09T07:48:06.275Z,8.60
2018-12-09T07:50:36.002Z,8.60
2018-12-09T07:53:05.066Z,8.50
2018-12-09T07:55:34.633Z,8.60
2018-12-09T07:58:03.732Z,8.60
2018-12-09T08:00:32.761Z,8.70
2018-12-09T08:03:01.889Z,8.70
2018-12-09T08:05:31.232Z,8.80
2018-12-09T08:08:00.467Z,8.80
2018-12-09T08:10:29.572Z,8.90
2018-12-09T08:12:58.803Z,8.90
2018-12-09T08:15:27.875Z,8.90
2018-12-09T08:17:56.980Z,8.80
2018-12-09T08:20:26.127Z,8.70
2018-12-09T08:22:55.157Z,8.60
2018-12-09T08:25:24.287Z,8.50
2018-12-09T08:27:53.443Z,8.50
2018-12-09T08:30:22.609Z,8.40
2018-12-09T08:32:51.656Z,8.40
2018-12-09T08:35:20.746Z,8.40
2018-12-09T08:37:49.859Z,8.40
2018-12-09T08:40:19.104Z,8.40
2018-12-09T08:42:48.255Z,8.40
2018-12-09T08:45:17.429Z,8.40
2018-12-09T08:47:47.157Z,8.40
2018-12-09T08:50:16.231Z,8.50
2018-12-09T08:52:45.466Z,8.50
2018-12-09T08:55:14.550Z,8.60
2018-12-09T08:57:43.615Z,8.60
2018-12-09T09:00:12.768Z,8.60
2018-12-09T09:02:42.022Z,8.70
2018-12-09T09:05:14.224Z,8.80
2018-12-09T09:07:43.439Z,9.00
2018-12-09T09:10:12.606Z,9.10
2018-12-09T09:12:42.492Z,9.20
2018-12-09T09:15:11.828Z,9.30
2018-12-09T09:17:40.895Z,9.30
2018-12-09T09:20:10.827Z,9.50
2018-12-09T09:22:39.919Z,9.60
2018-12-09T09:25:09.090Z,9.70
2018-12-09T09:27:38.361Z,9.80
2018-12-09T09:30:08.868Z,9.90
2018-12-09T09:32:37.910Z,10.10
2018-12-09T09:35:07.167Z,10.20
2018-12-09T09:37:36.242Z,10.30
2018-12-09T09:40:07.761Z,10.30
2018-12-09T09:42:36.992Z,10.10
2018-12-09T09:45:07.538Z,9.90
2018-12-09T09:47:36.991Z,9.70
2018-12-09T09:50:06.179Z,9.60
2018-12-09T09:52:35.343Z,9.50
2018-12-09T09:55:04.655Z,9.50
2018-12-09T09:57:33.771Z,9.50
2018-12-09T10:00:03.084Z,9.50
2018-12-09T10:02:32.211Z,9.50
2018-12-09T10:05:01.312Z,9.60
2018-12-09T10:07:30.377Z,9.70
2018-12-09T10:09:59.508Z,9.70
2018-12-09T10:12:28.733Z,9.70
2018-12-09T10:14:58.455Z,9.80
2018-12-09T10:17:27.541Z,9.80
2018-12-09T10:19:56.639Z,9.70
2018-12-09T10:22:25.959Z,9.60
2018-12-09T10:24:55.136Z,9.40
2018-12-09T10:27:24.439Z,9.20
2018-12-09T10:29:53.682Z,9.00
2018-12-09T10:32:22.819Z,8.90
2018-12-09T10:34:52.253Z,8.80
2018-12-09T10:37:21.399Z,8.80
2018-12-09T10:39:50.522Z,8.70
2018-12-09T10:42:19.704Z,8.70
2018-12-09T10:44:48.808Z,8.70
2018-12-09T10:47:17.943Z,8.60
2018-12-09T10:49:47.141Z,8.60
2018-12-09T10:52:16.200Z,8.60
2018-12-09T10:54:45.302Z,8.60
2018-12-09T10:57:14.380Z,8.60
2018-12-09T10:59:43.733Z,8.60
2018-12-09T11:02:19.866Z,8.70
2018-12-09T11:04:49.018Z,8.80
2018-12-09T11:07:18.106Z,8.90
2018-12-09T11:09:47.916Z,8.90
2018-12-09T11:12:17.075Z,9.00
2018-12-09T11:14:46.130Z,8.90
2018-12-09T11:17:15.232Z,8.90
2018-12-09T11:19:44.582Z,8.90
2018-12-09T11:22:13.691Z,8.90
2018-12-09T11:24:42.834Z,8.90
2018-12-09T11:27:11.960Z,8.90
2018-12-09T11:29:41.085Z,9.00
2018-12-09T11:32:10.793Z,9.00
2018-12-09T11:34:39.911Z,9.10
2018-12-09T11:37:09.158Z,9.20
2018-12-09T11:39:38.254Z,9.30
2018-12-09T11:42:07.675Z,9.20
2018-12-09T11:44:37.179Z,9.20
2018-12-09T11:47:06.418Z,9.10
2018-12-09T11:49:35.597Z,9.10
2018-12-09T11:52:04.935Z,9.10
2018-12-09T11:54:34.025Z,9.10
2018-12-09T11:57:03.253Z,9.10
2018-12-09T11:59:32.399Z,9.20
2018-12-09T12:02:01.607Z,9.20
2018-12-09T12:04:30.668Z,9.30
2018-12-09T12:06:59.769Z,9.40
2018-12-09T12:09:29.039Z,9.50
2018-12-09T12:11:58.673Z,9.60
2018-12-09T12:14:27.972Z,9.80
2018-12-09T12:16:57.052Z,10.00
2018-12-09T12:19:26.291Z,10.10
2018-12-09T12:21:55.466Z,10.10
2018-12-09T12:24:24.543Z,10.00
2018-12-09T12:26:53.635Z,9.80
2018-12-09T12:29:22.943Z,9.70
2018-12-09T12:31:51.991Z,9.50
2018-12-09T12:34:21.046Z,9.30
2018-12-09T12:36:56.953Z,9.20
2018-12-09T12:39:26.033Z,9.20
2018-12-09T12:41:55.144Z,9.20
2018-12-09T12:44:24.391Z,9.20
2018-12-09T12:46:54.217Z,9.30
2018-12-09T12:49:23.316Z,9.30
2018-12-09T12:51:52.658Z,9.30
2018-12-09T12:54:22.068Z,9.40
2018-12-09T12:56:51.196Z,9.50
2018-12-09T12:59:20.373Z,9.60
2018-12-09T13:01:49.558Z,9.70
2018-12-09T13:04:18.596Z,9.70
2018-12-09T13:06:47.993Z,9.70
2018-12-09T13:09:17.822Z,9.60
2018-12-09T13:11:46.883Z,9.50
2018-12-09T13:14:15.980Z,9.50
2018-12-09T13:16:45.605Z,9.40
2018-12-09T13:19:14.803Z,9.30
2018-12-09T13:21:44.195Z,9.20
2018-12-09T13:24:14.054Z,9.10
2018-12-09T13:26:43.117Z,9.00
2018-12-09T13:29:12.436Z,9.00
2018-12-09T13:31:41.658Z,8.90
2018-12-09T13:34:10.738Z,8.90
2018-12-09T13:36:40.552Z,8.90
2018-12-09T13:39:09.686Z,8.90
2018-12-09T13:41:38.724Z,8.90
2018-12-09T13:44:08.021Z,9.00
2018-12-09T13:46:38.045Z,9.00
2018-12-09T13:49:07.151Z,9.10
2018-12-09T13:51:36.255Z,9.20
2018-12-09T13:54:05.736Z,9.40
2018-12-09T13:56:34.795Z,9.50
2018-12-09T13:59:04.310Z,9.70
2018-12-09T14:01:33.529Z,9.90
2018-12-09T14:04:03.434Z,9.90
2018-12-09T14:06:32.656Z,9.90
2018-12-09T14:09:01.919Z,9.90
2018-12-09T14:11:32.145Z,9.90
2018-12-09T14:14:01.192Z,9.80
2018-12-09T14:16:30.208Z,9.80
2018-12-09T14:18:59.375Z,9.80
2018-12-09T14:21:28.629Z,9.80
2018-12-09T14:23:57.787Z,9.70
2018-12-09T14:26:27.155Z,9.80
2018-12-09T14:28:58.528Z,9.70
2018-12-09T14:31:29.853Z,9.70
2018-12-09T14:33:59.014Z,9.60
2018-12-09T14:36:28.186Z,9.40
2018-12-09T14:38:57.404Z,9.30
2018-12-09T14:41:26.618Z,9.20
2018-12-09T14:43:55.782Z,9.10
2018-12-09T14:46:25.055Z,9.10
2018-12-09T14:48:54.579Z,9.20
2018-12-09T14:51:23.646Z,9.20
2018-12-09T14:53:52.937Z,9.30
2018-12-09T14:56:21.972Z,9.30
2018-12-09T14:58:51.200Z,9.40
2018-12-09T15:01:20.508Z,9.40
2018-12-09T15:03:49.684Z,9.30
2018-12-09T15:06:18.903Z,9.20
2018-12-09T15:08:48.110Z,9.10
2018-12-09T15:11:17.695Z,9.10
2018-12-09T15:13:47.254Z,9.00
2018-12-09T15:16:16.460Z,8.90
2018-12-09T15:18:45.707Z,8.80
2018-12-09T15:21:14.924Z,8.80
2018-12-09T15:23:44.070Z,8.80
2018-12-09T15:26:13.117Z,8.70
2018-12-09T15:28:42.169Z,8.70
2018-12-09T15:31:11.320Z,8.80
2018-12-09T15:33:40.404Z,8.80
2018-12-09T15:36:09.454Z,8.80
2018-12-09T15:38:38.538Z,8.80
2018-12-09T15:41:07.765Z,8.80
2018-12-09T15:43:37.513Z,8.80
2018-12-09T15:46:06.692Z,8.80
2018-12-09T15:48:35.745Z,8.80
2018-12-09T15:51:05.373Z,8.80
2018-12-09T15:53:34.438Z,8.70
2018-12-09T15:56:03.731Z,8.60
2018-12-09T15:58:32.965Z,8.60
2018-12-09T16:01:02.073Z,8.60
2018-12-09T16:03:31.170Z,8.50
2018-12-09T16:06:00.262Z,8.40
2018-12-09T16:08:29.457Z,8.50
2018-12-09T16:10:58.792Z,8.50
2018-12-09T16:13:27.858Z,8.60
2018-12-09T16:15:57.093Z,8.50
2018-12-09T16:18:26.195Z,8.50
2018-12-09T16:20:55.328Z,8.40
2018-12-09T16:23:24.464Z,8.40
2018-12-09T16:25:53.656Z,8.30
2018-12-09T16:28:22.699Z,8.20
2018-12-09T16:30:51.816Z,8.20
2018-12-09T16:33:21.177Z,8.20
2018-12-09T16:35:50.735Z,8.20
2018-12-09T16:38:19.841Z,8.20
2018-12-09T16:40:48.929Z,8.30
2018-12-09T16:43:23.698Z,8.30
2018-12-09T16:45:52.832Z,8.10
2018-12-09T16:48:21.943Z,8.00
2018-12-09T16:50:52.480Z,7.90
2018-12-09T16:53:22.618Z,7.70
2018-12-09T16:55:51.865Z,7.60
2018-12-09T16:58:21.514Z,7.50
2018-12-09T17:00:50.593Z,7.40
2018-12-09T17:03:19.719Z,7.30
2018-12-09T17:05:48.780Z,7.30
2018-12-09T17:08:17.826Z,7.20
2018-12-09T17:10:46.920Z,7.20
2018-12-09T17:13:16.138Z,7.10
2018-12-09T17:15:45.413Z,7.00
2018-12-09T17:18:15.232Z,7.00
2018-12-09T17:20:44.775Z,6.90
2018-12-09T17:23:14.007Z,6.90
2018-12-09T17:25:43.614Z,6.90
2018-12-09T17:28:13.834Z,6.90
2018-12-09T17:30:43.556Z,6.90
2018-12-09T17:33:12.948Z,7.00
2018-12-09T17:35:42.795Z,7.00
2018-12-09T17:38:11.984Z,7.10
2018-12-09T17:40:42.360Z,7.20
2018-12-09T17:43:11.840Z,7.30
2018-12-09T17:45:40.903Z,7.30
2018-12-09T17:48:10.073Z,7.40
2018-12-09T17:50:39.195Z,7.50
2018-12-09T17:53:08.287Z,7.50
2018-12-09T17:55:43.981Z,7.60
2018-12-09T17:58:13.177Z,7.60
2018-12-09T18:00:42.467Z,7.70
2018-12-09T18:03:11.619Z,7.70
2018-12-09T18:05:40.851Z,7.80
2018-12-09T18:08:10.800Z,7.80
2018-12-09T18:10:39.985Z,7.80
2018-12-09T18:13:09.190Z,7.90
2018-12-09T18:15:38.574Z,7.90
2018-12-09T18:18:07.696Z,7.90
2018-12-09T18:20:43.394Z,8.00
2018-12-09T18:23:12.587Z,8.00
2018-12-09T18:25:42.482Z,8.00
2018-12-09T18:28:12.436Z,8.00
2018-12-09T18:30:41.880Z,8.00
2018-12-09T18:33:11.000Z,7.90
2018-12-09T18:35:40.076Z,7.80
2018-12-09T18:38:10.269Z,7.70
2018-12-09T18:40:39.494Z,7.60
2018-12-09T18:43:08.755Z,7.60
2018-12-09T18:45:37.890Z,7.60
2018-12-09T18:48:07.080Z,7.60
2018-12-09T18:50:36.243Z,7.60
2018-12-09T18:53:05.324Z,7.60
2018-12-09T18:55:34.731Z,7.70
2018-12-09T18:58:05.153Z,7.70
2018-12-09T19:00:34.323Z,7.60
2018-12-09T19:03:03.638Z,7.60
2018-12-09T19:05:32.705Z,7.60
2018-12-09T19:08:02.247Z,7.50
2018-12-09T19:10:32.043Z,7.50
2018-12-09T19:13:01.799Z,7.50
2018-12-09T19:15:31.563Z,7.40
2018-12-09T19:18:00.654Z,7.40
2018-12-09T19:20:29.852Z,7.40
2018-12-09T19:22:59.053Z,7.30
2018-12-09T19:25:28.367Z,7.20
2018-12-09T19:27:57.534Z,7.10
2018-12-09T19:30:26.786Z,7.00
2018-12-09T19:32:56.002Z,7.00
2018-12-09T19:35:25.638Z,6.90
2018-12-09T19:37:54.774Z,6.90
2018-12-09T19:40:24.045Z,6.90
2018-12-09T19:42:53.108Z,6.90
2018-12-09T19:45:22.280Z,7.00
2018-12-09T19:47:51.374Z,7.10
2018-12-09T19:50:21.010Z,7.20
2018-12-09T19:52:50.711Z,7.20
2018-12-09T19:55:19.891Z,7.30
2018-12-09T19:57:49.773Z,7.40
2018-12-09T20:00:18.888Z,7.40
2018-12-09T20:02:47.999Z,7.30
2018-12-09T20:05:18.266Z,7.20
2018-12-09T20:07:47.365Z,7.10
2018-12-09T20:10:16.459Z,7.10
2018-12-09T20:12:45.563Z,7.20
2018-12-09T20:15:14.744Z,7.20
2018-12-09T20:17:44.433Z,7.30
2018-12-09T20:20:13.717Z,7.30
2018-12-09T20:22:49.420Z,7.30
2018-12-09T20:25:18.657Z,7.40
2018-12-09T20:27:47.875Z,7.40
2018-12-09T20:30:17.003Z,7.40
2018-12-09T20:32:46.245Z,7.40
2018-12-09T20:35:15.326Z,7.50
2018-12-09T20:37:44.497Z,7.50
2018-12-09T20:40:13.596Z,7.50
2018-12-09T20:42:48.196Z,7.50
2018-12-09T20:45:14.236Z,7.50
2018-12-09T20:47:44.661Z,7.60
2018-12-09T20:50:13.821Z,7.60
2018-12-09T20:52:43.001Z,7.50
2018-12-09T20:55:12.214Z,7.40
2018-12-09T20:57:41.360Z,7.40
2018-12-09T21:00:12.322Z,7.50
2018-12-09T21:02:41.735Z,7.50
2018-12-09T21:05:10.994Z,7.50
2018-12-09T21:07:40.220Z,7.50
2018-12-09T21:10:13.319Z,7.50
2018-12-09T21:12:42.567Z,7.50
2018-12-09T21:15:11.841Z,7.60
2018-12-09T21:17:41.042Z,7.60
2018-12-09T21:20:10.251Z,7.60
2018-12-09T21:22:39.384Z,7.50
2018-12-09T21:25:08.722Z,7.60
2018-12-09T21:27:37.860Z,7.70
2018-12-09T21:30:11.935Z,7.70
2018-12-09T21:32:41.300Z,7.50
2018-12-09T21:35:10.789Z,7.40
2018-12-09T21:37:42.028Z,7.10
2018-12-09T21:40:11.527Z,6.90
2018-12-09T21:42:40.564Z,6.60
2018-12-09T21:45:09.910Z,6.40
2018-12-09T21:47:38.970Z,6.30
2018-12-09T21:50:08.441Z,6.20
2018-12-09T21:52:37.681Z,6.20
2018-12-09T21:55:06.796Z,6.20
2018-12-09T21:57:36.803Z,6.10
2018-12-09T22:00:07.994Z,6.00
2018-12-09T22:02:38.086Z,6.00
2018-12-09T22:05:08.548Z,5.90
2018-12-09T22:07:37.720Z,5.90
2018-12-09T22:10:07.255Z,5.80
2018-12-09T22:12:36.346Z,5.80
2018-12-09T22:15:05.544Z,5.80
2018-12-09T22:17:35.210Z,5.70
2018-12-09T22:20:05.182Z,5.70
2018-12-09T22:22:34.351Z,5.70
2018-12-09T22:25:03.459Z,5.70
2018-12-09T22:27:32.861Z,5.70
2018-12-09T22:30:02.070Z,5.70
2018-12-09T22:32:31.413Z,5.70
2018-12-09T22:35:00.679Z,5.80
2018-12-09T22:37:29.847Z,5.80
2018-12-09T22:39:59.011Z,5.80
2018-12-09T22:42:28.235Z,5.80
2018-12-09T22:44:57.353Z,5.80
2018-12-09T22:47:26.410Z,5.70
2018-12-09T22:49:55.590Z,5.60
2018-12-09T22:52:25.708Z,5.60
2018-12-09T22:54:55.130Z,5.50
2018-12-09T22:57:24.260Z,5.40
2018-12-09T22:59:53.402Z,5.40
2018-12-09T23:02:27.891Z,5.40
2018-12-09T23:04:57.028Z,5.30
2018-12-09T23:07:31.684Z,5.40
2018-12-09T23:10:00.706Z,5.30
2018-12-09T23:12:30.004Z,5.30
2018-12-09T23:14:59.165Z,5.20
2018-12-09T23:17:28.337Z,5.20
2018-12-09T23:20:04.473Z,5.20
2018-12-09T23:22:33.786Z,5.10
2018-12-09T23:25:02.906Z,5.10
2018-12-09T23:27:32.176Z,5.10
2018-12-09T23:30:01.540Z,5.10
2018-12-09T23:32:30.586Z,5.10
2018-12-09T23:34:59.883Z,5.10
2018-12-09T23:37:28.999Z,5.20
2018-12-09T23:39:58.146Z,5.40
2018-12-09T23:42:27.174Z,5.50
2018-12-09T23:44:56.260Z,5.70
2018-12-09T23:47:25.617Z,5.70
2018-12-09T23:49:54.647Z,5.70
2018-12-09T23:52:23.729Z,5.80
2018-12-09T23:54:53.456Z,5.90
2018-12-09T23:57:22.503Z,5.90
2018-12-09T23:59:51.690Z,5.90
